Terminal Aerodrome Forecast
Issued by NWS

Home | Current Version | Previous Version | Text Only | Print | Product List | Glossary On
Versions: 1 2 3 4 5 6 7 8 9 10 11 12 13 14 15 16 17
915
FTUS45 KMSO 131137
TAFSMN
TAF
KSMN 131137Z 1312/1412 14007KT 4SM BR SKC
     FM131300 VRB03KT 6SM -SHRASN FEW020 BKN030 OVC050
     FM131500 33011G17KT P6SM VCSH BKN050
     FM140100 32006KT P6SM BKN050
      AMD LTD TO CLD VIS AND WIND=

USA.gov is the U.S. government's official web portal to all federal, state and local government web resources and services.